Create Tblcommutelog Verified Points Advance Search
| # | Trip ID | Id Commuter | Trip Date | Trip Num | Current Lat | Current Lng | Delta Distance | Current Time | Activity | Activity Confidence | Current Speed | |
|---|---|---|---|---|---|---|---|---|---|---|---|---|
| 73321 | 250416_753634_16500081_0852 | 753634 | (not set) | (not set) | 38.889855443666 | -77.00230437102 | 1.7741 | 2025-04-16 13:02:07.298 | on_bicycle | 100 | 2.1770811912702 | |
| 73322 | 250416_698742_16447752_0833 | 698742 | (not set) | (not set) | 38.839544872224 | -77.04803427699 | 10.5726 | 2025-04-16 13:02:09.296 | in_vehicle | 100 | 8.703854372491 | |
| 73323 | 250416_781000_16415274_0845 | 781000 | (not set) | (not set) | 38.90366559786 | -77.031973426935 | 1.4255 | 2025-04-16 13:02:14.201 | in_vehicle | 100 | 2.695646731696 | |
| 73324 | 250416_679555_16500693_0813 | 679555 | (not set) | (not set) | 38.839752999221 | -77.048153735233 | 16.0595 | 2025-04-16 13:02:14.301 | in_vehicle | 100 | 8.4579827800477 | |
| 73325 | 250416_780789_16421763_0758 | 780789 | (not set) | (not set) | 38.897123597232 | -77.175297970767 | 38.6252 | 2025-04-16 13:02:15.419 | unknown | 100 | 8.5920945577441 | |
| 73326 | 250416_772498_16510399_0852 | 772498 | (not set) | (not set) | 38.894986796032 | -76.972208432733 | 0.1876 | 2025-04-16 13:02:15.623 | unknown | 100 | -0.44703925898772 | |
| 73327 | 250416_108110_16500693_0855 | 108110 | (not set) | (not set) | 39.029411948923 | -77.10400298409 | 1.1735 | 2025-04-16 13:02:17.192 | on_foot | 100 | 0.30845708870153 | |
| 73328 | 250410_778121_16450333_1249 | 778121 | (not set) | (not set) | 38.87536550164 | -77.002053427241 | 0.0848 | 2025-04-10 16:51:22.709 | on_foot | 100 | 0.13411177769632 | |
| 73329 | 250410_782619_16650325_1237 | 782619 | (not set) | (not set) | 38.869616866069 | -77.053977672299 | 3.2101 | 2025-04-10 16:53:06.351 | in_vehicle | 100 | -0.44703925898772 | |
| 73330 | 250410_753634_0_1244 | 753634 | (not set) | (not set) | 39.031104605724 | -77.070464384243 | 1.4632 | 2025-04-10 16:53:22.261 | on_bicycle | 100 | 2.4855382799717 | |
| 73331 | 250410_753634_0_1244 | 753634 | (not set) | (not set) | 39.031116743908 | -77.070555191781 | 1.4632 | 2025-04-10 16:53:24.242 | on_bicycle | 100 | 1.8149793914902 | |
| 73332 | 250410_782619_16650325_1237 | 782619 | (not set) | (not set) | 38.867718708348 | -77.05546769447 | 3.2101 | 2025-04-10 16:53:40.795 | in_vehicle | 100 | -0.44703925898772 | |
| 73333 | 250410_753634_0_1244 | 753634 | (not set) | (not set) | 39.031099773969 | -77.071671522083 | 1.5281 | 2025-04-10 16:53:42.291 | on_bicycle | 100 | 1.9848543099055 | |
| 73334 | 250410_753634_0_1244 | 753634 | (not set) | (not set) | 39.03106017688 | -77.072837539865 | 1.591 | 2025-04-10 16:54:00.232 | on_bicycle | 100 | 2.9415183241392 | |
| 73335 | 250410_782619_16650325_1237 | 782619 | (not set) | (not set) | 38.858045284563 | -77.049672148471 | 4.0414 | 2025-04-10 16:59:01.07 | still | 33 | -0.44703925898772 | |
| 73336 | 250410_782619_16650325_1237 | 782619 | (not set) | (not set) | 38.858045060406 | -77.04969908183 | 4.0414 | 2025-04-10 16:59:10.505 | on_foot | 100 | -0.44703925898772 | |
| 73337 | 250410_782619_16650325_1237 | 782619 | (not set) | (not set) | 38.858045060406 | -77.04969908183 | 4.0414 | 2025-04-10 16:59:10.515 | on_foot | 100 | -0.44703925898772 | |
| 73338 | 250410_782619_16650325_1237 | 782619 | (not set) | (not set) | 38.858051760334 | -77.049725682973 | 4.0414 | 2025-04-10 16:59:24.245 | on_foot | 100 | -0.44703925898772 | |
| 73339 | 250410_782619_16650325_1237 | 782619 | (not set) | (not set) | 38.858046696262 | -77.04971462562 | 4.0414 | 2025-04-10 16:59:24.245 | on_foot | 100 | -0.44703925898772 | |
| 73340 | 250410_782619_16650325_1237 | 782619 | (not set) | (not set) | 38.858050651004 | -77.049712902774 | 4.0414 | 2025-04-10 16:59:50.66 | on_foot | 100 | -0.44703925898772 |